Terminal Aerodrome Forecast
Issued by NWS Grand Forks, ND

Home | Current Version | Previous Version | Text Only | Print | Product List | Glossary Off
Versions: 1 2 3 4 5 6 7 8 9 10 11 12 13 14 15 16 17 18

000
FTUS43 KFGF 150410 AAA
TAFGFK
TAF AMD
KGFK 150410Z 1504/1524 34015KT P6SM -SN OVC029
     FM150500 34015KT 5SM -SN OVC029
      TEMPO 1505/1509 1SM -SN OVC012
     FM150900 35016G24KT 1 1/2SM -SN BLSN OVC020
     FM151200 35020G30KT 2SM BLSN OVC040
     FM151700 34020G30KT 5SM BLSN BKN120
     FM152000 33017G26KT P6SM SCT200=

USA.gov is the U.S. government's official web portal to all federal, state and local government web resources and services.